sensor_id;sensor_type;location;lat;lon;timestamp;temperature;humidity
23721;DHT22;42950;52.134;5.578;2023-12-20T00:00:20;6.70;99.90
23721;DHT22;42950;52.134;5.578;2023-12-20T00:02:45;6.70;99.90
23721;DHT22;42950;52.134;5.578;2023-12-20T00:05:13;6.60;99.90
23721;DHT22;42950;52.134;5.578;2023-12-20T00:07:39;6.70;99.90
23721;DHT22;42950;52.134;5.578;2023-12-20T00:10:05;6.60;99.90
23721;DHT22;42950;52.134;5.578;2023-12-20T00:12:30;6.60;99.90
23721;DHT22;42950;52.134;5.578;2023-12-20T00:14:56;6.60;99.90
23721;DHT22;42950;52.134;5.578;2023-12-20T00:17:21;6.50;99.90
23721;DHT22;42950;52.134;5.578;2023-12-20T00:19:47;6.60;99.90
23721;DHT22;42950;52.134;5.578;2023-12-20T00:22:12;6.60;99.90
23721;DHT22;42950;52.134;5.578;2023-12-20T00:24:38;6.50;99.90
23721;DHT22;42950;52.134;5.578;2023-12-20T00:27:04;6.50;99.90
23721;DHT22;42950;52.134;5.578;2023-12-20T00:29:29;6.50;99.90
23721;DHT22;42950;52.134;5.578;2023-12-20T00:31:55;6.50;99.90
23721;DHT22;42950;52.134;5.578;2023-12-20T00:34:20;6.50;99.90
23721;DHT22;42950;52.134;5.578;2023-12-20T00:36:46;6.40;99.90
23721;DHT22;42950;52.134;5.578;2023-12-20T00:39:12;6.40;99.90
23721;DHT22;42950;52.134;5.578;2023-12-20T00:41:38;6.40;99.90
23721;DHT22;42950;52.134;5.578;2023-12-20T00:44:03;6.40;99.90
23721;DHT22;42950;52.134;5.578;2023-12-20T00:46:29;6.40;99.90
23721;DHT22;42950;52.134;5.578;2023-12-20T00:48:54;6.40;99.90
23721;DHT22;42950;52.134;5.578;2023-12-20T00:51:20;6.50;99.90
23721;DHT22;42950;52.134;5.578;2023-12-20T00:53:46;6.40;99.90
23721;DHT22;42950;52.134;5.578;2023-12-20T00:56:14;6.40;99.90
23721;DHT22;42950;52.134;5.578;2023-12-20T00:58:40;6.30;99.90
23721;DHT22;42950;52.134;5.578;2023-12-20T01:01:05;6.40;99.90
23721;DHT22;42950;52.134;5.578;2023-12-20T01:03:31;6.40;99.90
23721;DHT22;42950;52.134;5.578;2023-12-20T01:05:56;6.40;99.90
23721;DHT22;42950;52.134;5.578;2023-12-20T01:08:22;6.40;99.90
23721;DHT22;42950;52.134;5.578;2023-12-20T01:10:48;6.30;99.90
23721;DHT22;42950;52.134;5.578;2023-12-20T01:13:13;6.30;99.90
23721;DHT22;42950;52.134;5.578;2023-12-20T01:15:39;6.20;99.90
23721;DHT22;42950;52.134;5.578;2023-12-20T01:18:05;6.20;99.90
23721;DHT22;42950;52.134;5.578;2023-12-20T01:20:30;6.20;99.90
23721;DHT22;42950;52.134;5.578;2023-12-20T01:22:56;6.10;99.90
23721;DHT22;42950;52.134;5.578;2023-12-20T01:25:22;6.20;99.90
23721;DHT22;42950;52.134;5.578;2023-12-20T01:27:47;6.20;99.90
23721;DHT22;42950;52.134;5.578;2023-12-20T01:30:13;6.10;99.90
23721;DHT22;42950;52.134;5.578;2023-12-20T01:32:39;6.10;99.90
23721;DHT22;42950;52.134;5.578;2023-12-20T01:35:04;6.00;99.90
23721;DHT22;42950;52.134;5.578;2023-12-20T01:37:30;6.00;99.90
23721;DHT22;42950;52.134;5.578;2023-12-20T01:39:56;6.00;99.90
23721;DHT22;42950;52.134;5.578;2023-12-20T01:42:21;6.00;99.90
23721;DHT22;42950;52.134;5.578;2023-12-20T01:44:47;6.00;99.90
23721;DHT22;42950;52.134;5.578;2023-12-20T01:47:13;6.00;99.90
23721;DHT22;42950;52.134;5.578;2023-12-20T01:49:39;6.00;99.90
23721;DHT22;42950;52.134;5.578;2023-12-20T01:52:05;6.00;99.90
23721;DHT22;42950;52.134;5.578;2023-12-20T01:54:31;6.10;99.90
23721;DHT22;42950;52.134;5.578;2023-12-20T01:56:57;6.10;99.90
23721;DHT22;42950;52.134;5.578;2023-12-20T01:59:23;6.10;99.90
23721;DHT22;42950;52.134;5.578;2023-12-20T02:01:48;6.20;99.90
23721;DHT22;42950;52.134;5.578;2023-12-20T02:04:14;6.10;99.90
23721;DHT22;42950;52.134;5.578;2023-12-20T02:06:40;6.10;99.90
23721;DHT22;42950;52.134;5.578;2023-12-20T02:09:07;6.20;99.90
23721;DHT22;42950;52.134;5.578;2023-12-20T02:11:33;6.20;99.90
23721;DHT22;42950;52.134;5.578;2023-12-20T02:14:00;6.10;99.90
23721;DHT22;42950;52.134;5.578;2023-12-20T02:16:26;6.10;99.90
23721;DHT22;42950;52.134;5.578;2023-12-20T02:18:51;6.10;99.90
23721;DHT22;42950;52.134;5.578;2023-12-20T02:21:17;6.10;99.90
23721;DHT22;42950;52.134;5.578;2023-12-20T02:23:43;6.10;99.90
23721;DHT22;42950;52.134;5.578;2023-12-20T02:26:08;6.20;99.90
23721;DHT22;42950;52.134;5.578;2023-12-20T02:28:34;6.10;99.90
23721;DHT22;42950;52.134;5.578;2023-12-20T02:31:00;6.10;99.90
23721;DHT22;42950;52.134;5.578;2023-12-20T02:33:25;6.20;99.90
23721;DHT22;42950;52.134;5.578;2023-12-20T02:35:51;6.20;99.90
23721;DHT22;42950;52.134;5.578;2023-12-20T02:38:18;6.30;99.90
23721;DHT22;42950;52.134;5.578;2023-12-20T02:40:43;6.30;99.90
23721;DHT22;42950;52.134;5.578;2023-12-20T02:43:09;6.40;99.90
23721;DHT22;42950;52.134;5.578;2023-12-20T02:45:34;6.30;99.90
23721;DHT22;42950;52.134;5.578;2023-12-20T02:48:00;6.40;99.90
23721;DHT22;42950;52.134;5.578;2023-12-20T02:50:25;6.40;99.90
23721;DHT22;42950;52.134;5.578;2023-12-20T02:52:51;6.40;99.90
23721;DHT22;42950;52.134;5.578;2023-12-20T02:55:16;6.40;99.90
23721;DHT22;42950;52.134;5.578;2023-12-20T02:57:42;6.40;99.90
23721;DHT22;42950;52.134;5.578;2023-12-20T03:00:09;6.40;99.90
23721;DHT22;42950;52.134;5.578;2023-12-20T03:02:35;6.30;99.90
23721;DHT22;42950;52.134;5.578;2023-12-20T03:05:01;6.40;99.90
23721;DHT22;42950;52.134;5.578;2023-12-20T03:07:26;6.30;99.90
23721;DHT22;42950;52.134;5.578;2023-12-20T03:09:52;6.30;99.90
23721;DHT22;42950;52.134;5.578;2023-12-20T03:12:17;6.40;99.90
23721;DHT22;42950;52.134;5.578;2023-12-20T03:14:43;6.30;99.90
23721;DHT22;42950;52.134;5.578;2023-12-20T03:17:09;6.40;99.90
23721;DHT22;42950;52.134;5.578;2023-12-20T03:19:36;6.40;99.90
23721;DHT22;42950;52.134;5.578;2023-12-20T03:22:02;6.40;99.90
23721;DHT22;42950;52.134;5.578;2023-12-20T03:24:27;6.40;99.90
23721;DHT22;42950;52.134;5.578;2023-12-20T03:26:53;6.40;99.90
23721;DHT22;42950;52.134;5.578;2023-12-20T03:29:19;6.40;99.90
23721;DHT22;42950;52.134;5.578;2023-12-20T03:31:44;6.50;99.90
23721;DHT22;42950;52.134;5.578;2023-12-20T03:34:11;6.50;99.90
23721;DHT22;42950;52.134;5.578;2023-12-20T03:36:36;6.50;99.90
23721;DHT22;42950;52.134;5.578;2023-12-20T03:39:02;6.60;99.90
23721;DHT22;42950;52.134;5.578;2023-12-20T03:41:28;6.50;99.90
23721;DHT22;42950;52.134;5.578;2023-12-20T03:43:54;6.60;99.90
23721;DHT22;42950;52.134;5.578;2023-12-20T03:46:19;6.60;99.90
23721;DHT22;42950;52.134;5.578;2023-12-20T03:48:45;6.60;99.90
23721;DHT22;42950;52.134;5.578;2023-12-20T03:51:10;6.70;99.90
23721;DHT22;42950;52.134;5.578;2023-12-20T03:53:36;6.70;99.90
23721;DHT22;42950;52.134;5.578;2023-12-20T03:56:01;6.70;99.90
23721;DHT22;42950;52.134;5.578;2023-12-20T03:58:27;6.70;99.90
23721;DHT22;42950;52.134;5.578;2023-12-20T04:00:52;6.60;99.90
23721;DHT22;42950;52.134;5.578;2023-12-20T04:03:18;6.70;99.90
23721;DHT22;42950;52.134;5.578;2023-12-20T04:05:43;6.60;99.90
23721;DHT22;42950;52.134;5.578;2023-12-20T04:08:09;6.60;99.90
23721;DHT22;42950;52.134;5.578;2023-12-20T04:10:35;6.60;99.90
23721;DHT22;42950;52.134;5.578;2023-12-20T04:13:00;6.70;99.90
23721;DHT22;42950;52.134;5.578;2023-12-20T04:15:26;6.70;99.90
23721;DHT22;42950;52.134;5.578;2023-12-20T04:17:51;6.80;99.90
23721;DHT22;42950;52.134;5.578;2023-12-20T04:20:17;6.80;99.90
23721;DHT22;42950;52.134;5.578;2023-12-20T04:22:43;6.90;99.90
23721;DHT22;42950;52.134;5.578;2023-12-20T04:25:08;6.90;99.90
23721;DHT22;42950;52.134;5.578;2023-12-20T04:27:35;7.00;99.90
23721;DHT22;42950;52.134;5.578;2023-12-20T04:30:00;7.00;99.90
23721;DHT22;42950;52.134;5.578;2023-12-20T04:32:26;7.00;99.90
23721;DHT22;42950;52.134;5.578;2023-12-20T04:34:51;7.00;99.90
23721;DHT22;42950;52.134;5.578;2023-12-20T04:37:17;7.00;99.90
23721;DHT22;42950;52.134;5.578;2023-12-20T04:39:42;7.00;99.90
23721;DHT22;42950;52.134;5.578;2023-12-20T04:42:08;7.00;99.90
23721;DHT22;42950;52.134;5.578;2023-12-20T04:44:33;7.00;99.90
23721;DHT22;42950;52.134;5.578;2023-12-20T04:46:59;7.00;99.90
23721;DHT22;42950;52.134;5.578;2023-12-20T04:49:25;7.10;99.90
23721;DHT22;42950;52.134;5.578;2023-12-20T04:51:51;7.20;99.90
23721;DHT22;42950;52.134;5.578;2023-12-20T04:54:16;7.20;99.90
23721;DHT22;42950;52.134;5.578;2023-12-20T04:56:42;7.20;99.90
23721;DHT22;42950;52.134;5.578;2023-12-20T04:59:07;7.20;99.90
23721;DHT22;42950;52.134;5.578;2023-12-20T05:01:33;7.30;99.90
23721;DHT22;42950;52.134;5.578;2023-12-20T05:03:59;7.30;99.90
23721;DHT22;42950;52.134;5.578;2023-12-20T05:06:24;7.30;99.90
23721;DHT22;42950;52.134;5.578;2023-12-20T05:08:50;7.30;99.90
23721;DHT22;42950;52.134;5.578;2023-12-20T05:11:15;7.30;99.90
23721;DHT22;42950;52.134;5.578;2023-12-20T05:13:41;7.40;99.90
23721;DHT22;42950;52.134;5.578;2023-12-20T05:16:07;7.40;99.90
23721;DHT22;42950;52.134;5.578;2023-12-20T05:18:34;7.40;99.90
23721;DHT22;42950;52.134;5.578;2023-12-20T05:21:00;7.40;99.90
23721;DHT22;42950;52.134;5.578;2023-12-20T05:23:26;7.50;99.90
23721;DHT22;42950;52.134;5.578;2023-12-20T05:25:51;7.50;99.90
23721;DHT22;42950;52.134;5.578;2023-12-20T05:28:17;7.50;99.90
23721;DHT22;42950;52.134;5.578;2023-12-20T05:30:42;7.50;99.90
23721;DHT22;42950;52.134;5.578;2023-12-20T05:33:08;7.50;99.90
23721;DHT22;42950;52.134;5.578;2023-12-20T05:35:34;7.50;99.90
23721;DHT22;42950;52.134;5.578;2023-12-20T05:38:00;7.60;99.90
23721;DHT22;42950;52.134;5.578;2023-12-20T05:40:26;7.60;99.90
23721;DHT22;42950;52.134;5.578;2023-12-20T05:42:51;7.60;99.90
23721;DHT22;42950;52.134;5.578;2023-12-20T05:45:17;7.50;99.90
23721;DHT22;42950;52.134;5.578;2023-12-20T05:47:42;7.60;99.90
23721;DHT22;42950;52.134;5.578;2023-12-20T05:50:08;7.50;99.90
23721;DHT22;42950;52.134;5.578;2023-12-20T05:52:34;7.60;99.90
23721;DHT22;42950;52.134;5.578;2023-12-20T05:55:00;7.60;99.90
23721;DHT22;42950;52.134;5.578;2023-12-20T05:57:27;7.60;99.90
23721;DHT22;42950;52.134;5.578;2023-12-20T05:59:52;7.60;99.90
23721;DHT22;42950;52.134;5.578;2023-12-20T06:02:18;7.60;99.90
23721;DHT22;42950;52.134;5.578;2023-12-20T06:04:43;7.60;99.90
23721;DHT22;42950;52.134;5.578;2023-12-20T06:07:11;7.60;99.90
23721;DHT22;42950;52.134;5.578;2023-12-20T06:09:37;7.70;99.90
23721;DHT22;42950;52.134;5.578;2023-12-20T06:12:03;7.70;99.90
23721;DHT22;42950;52.134;5.578;2023-12-20T06:14:28;7.70;99.90
23721;DHT22;42950;52.134;5.578;2023-12-20T06:16:56;7.70;99.90
23721;DHT22;42950;52.134;5.578;2023-12-20T06:19:22;7.70;99.90
23721;DHT22;42950;52.134;5.578;2023-12-20T06:21:47;7.70;99.90
23721;DHT22;42950;52.134;5.578;2023-12-20T06:24:13;7.70;99.90
23721;DHT22;42950;52.134;5.578;2023-12-20T06:26:38;7.70;99.90
23721;DHT22;42950;52.134;5.578;2023-12-20T06:29:04;7.70;99.90
23721;DHT22;42950;52.134;5.578;2023-12-20T06:31:30;7.70;99.90
23721;DHT22;42950;52.134;5.578;2023-12-20T06:33:55;7.70;99.90
23721;DHT22;42950;52.134;5.578;2023-12-20T06:36:23;7.70;99.90
23721;DHT22;42950;52.134;5.578;2023-12-20T06:38:50;7.70;99.90
23721;DHT22;42950;52.134;5.578;2023-12-20T06:41:15;7.70;99.90
23721;DHT22;42950;52.134;5.578;2023-12-20T06:43:42;7.80;99.90
23721;DHT22;42950;52.134;5.578;2023-12-20T06:46:07;7.80;99.90
23721;DHT22;42950;52.134;5.578;2023-12-20T06:48:34;7.80;99.90
23721;DHT22;42950;52.134;5.578;2023-12-20T06:51:00;7.80;99.90
23721;DHT22;42950;52.134;5.578;2023-12-20T06:53:27;7.80;99.90
23721;DHT22;42950;52.134;5.578;2023-12-20T06:55:53;7.80;99.90
23721;DHT22;42950;52.134;5.578;2023-12-20T06:58:18;7.80;99.90
23721;DHT22;42950;52.134;5.578;2023-12-20T07:00:44;7.80;99.90
23721;DHT22;42950;52.134;5.578;2023-12-20T07:03:10;7.80;99.90
23721;DHT22;42950;52.134;5.578;2023-12-20T07:05:35;7.90;99.90
23721;DHT22;42950;52.134;5.578;2023-12-20T07:08:01;7.80;99.90
23721;DHT22;42950;52.134;5.578;2023-12-20T07:10:26;7.90;99.90
23721;DHT22;42950;52.134;5.578;2023-12-20T07:12:53;7.90;99.90
23721;DHT22;42950;52.134;5.578;2023-12-20T07:15:21;7.80;99.90
23721;DHT22;42950;52.134;5.578;2023-12-20T07:17:46;7.80;99.90
23721;DHT22;42950;52.134;5.578;2023-12-20T07:20:12;7.90;99.90
23721;DHT22;42950;52.134;5.578;2023-12-20T07:22:37;7.90;99.90
23721;DHT22;42950;52.134;5.578;2023-12-20T07:25:03;7.90;99.90
23721;DHT22;42950;52.134;5.578;2023-12-20T07:27:29;7.90;99.90
23721;DHT22;42950;52.134;5.578;2023-12-20T07:29:54;7.80;99.90
23721;DHT22;42950;52.134;5.578;2023-12-20T07:32:20;7.90;99.90
23721;DHT22;42950;52.134;5.578;2023-12-20T07:34:46;7.90;99.90
23721;DHT22;42950;52.134;5.578;2023-12-20T07:37:11;7.90;99.90
23721;DHT22;42950;52.134;5.578;2023-12-20T07:39:40;7.90;99.90
23721;DHT22;42950;52.134;5.578;2023-12-20T07:42:07;7.90;99.90
23721;DHT22;42950;52.134;5.578;2023-12-20T07:44:32;7.90;99.90
23721;DHT22;42950;52.134;5.578;2023-12-20T07:46:58;7.90;99.90
23721;DHT22;42950;52.134;5.578;2023-12-20T07:49:24;7.90;99.90
23721;DHT22;42950;52.134;5.578;2023-12-20T07:51:49;7.90;99.90
23721;DHT22;42950;52.134;5.578;2023-12-20T07:54:15;8.00;99.90
23721;DHT22;42950;52.134;5.578;2023-12-20T07:56:41;8.00;99.90
23721;DHT22;42950;52.134;5.578;2023-12-20T07:59:07;8.00;99.90
23721;DHT22;42950;52.134;5.578;2023-12-20T08:01:32;8.00;99.90
23721;DHT22;42950;52.134;5.578;2023-12-20T08:03:58;8.00;99.90
23721;DHT22;42950;52.134;5.578;2023-12-20T08:06:23;8.10;99.90
23721;DHT22;42950;52.134;5.578;2023-12-20T08:08:49;8.00;99.90
23721;DHT22;42950;52.134;5.578;2023-12-20T08:11:14;8.00;99.90
23721;DHT22;42950;52.134;5.578;2023-12-20T08:13:40;8.10;99.90
23721;DHT22;42950;52.134;5.578;2023-12-20T08:16:06;8.10;99.90
23721;DHT22;42950;52.134;5.578;2023-12-20T08:18:31;8.10;99.90
23721;DHT22;42950;52.134;5.578;2023-12-20T08:20:57;8.10;99.90
23721;DHT22;42950;52.134;5.578;2023-12-20T08:23:22;8.10;99.90
23721;DHT22;42950;52.134;5.578;2023-12-20T08:25:48;8.10;99.90
23721;DHT22;42950;52.134;5.578;2023-12-20T08:28:14;8.10;99.90
23721;DHT22;42950;52.134;5.578;2023-12-20T08:30:40;8.10;99.90
23721;DHT22;42950;52.134;5.578;2023-12-20T08:33:06;8.10;99.90
23721;DHT22;42950;52.134;5.578;2023-12-20T08:35:36;8.10;99.90
23721;DHT22;42950;52.134;5.578;2023-12-20T08:38:02;8.10;99.90
23721;DHT22;42950;52.134;5.578;2023-12-20T08:40:27;8.10;99.90
23721;DHT22;42950;52.134;5.578;2023-12-20T08:42:53;8.10;99.90
23721;DHT22;42950;52.134;5.578;2023-12-20T08:45:20;8.10;99.90
23721;DHT22;42950;52.134;5.578;2023-12-20T08:47:45;8.10;99.90
23721;DHT22;42950;52.134;5.578;2023-12-20T08:50:11;8.20;99.90
23721;DHT22;42950;52.134;5.578;2023-12-20T08:52:36;8.20;99.90
23721;DHT22;42950;52.134;5.578;2023-12-20T08:55:02;8.20;99.90
23721;DHT22;42950;52.134;5.578;2023-12-20T08:57:27;8.20;99.90
23721;DHT22;42950;52.134;5.578;2023-12-20T08:59:53;8.20;99.90
23721;DHT22;42950;52.134;5.578;2023-12-20T09:02:19;8.20;99.90
23721;DHT22;42950;52.134;5.578;2023-12-20T09:04:44;8.20;99.90
23721;DHT22;42950;52.134;5.578;2023-12-20T09:07:25;8.20;99.90
23721;DHT22;42950;52.134;5.578;2023-12-20T09:09:52;8.20;99.90
23721;DHT22;42950;52.134;5.578;2023-12-20T09:12:18;8.20;99.90
23721;DHT22;42950;52.134;5.578;2023-12-20T09:14:45;8.10;99.90
23721;DHT22;42950;52.134;5.578;2023-12-20T09:17:11;8.10;99.90
23721;DHT22;42950;52.134;5.578;2023-12-20T09:19:37;8.10;99.90
23721;DHT22;42950;52.134;5.578;2023-12-20T09:22:03;8.10;99.90
23721;DHT22;42950;52.134;5.578;2023-12-20T09:24:29;8.00;99.90
23721;DHT22;42950;52.134;5.578;2023-12-20T09:26:55;8.00;99.90
23721;DHT22;42950;52.134;5.578;2023-12-20T09:29:20;8.00;99.90
23721;DHT22;42950;52.134;5.578;2023-12-20T09:31:46;8.00;99.90
23721;DHT22;42950;52.134;5.578;2023-12-20T09:34:13;8.00;99.90
23721;DHT22;42950;52.134;5.578;2023-12-20T09:36:38;8.00;99.90
23721;DHT22;42950;52.134;5.578;2023-12-20T09:39:07;8.00;99.90
23721;DHT22;42950;52.134;5.578;2023-12-20T09:41:37;8.00;99.90
23721;DHT22;42950;52.134;5.578;2023-12-20T09:44:08;8.00;99.90
23721;DHT22;42950;52.134;5.578;2023-12-20T09:46:39;8.10;99.90
23721;DHT22;42950;52.134;5.578;2023-12-20T09:49:08;8.10;99.90
23721;DHT22;42950;52.134;5.578;2023-12-20T09:51:34;8.10;99.90
23721;DHT22;42950;52.134;5.578;2023-12-20T09:54:03;8.20;99.90
23721;DHT22;42950;52.134;5.578;2023-12-20T09:56:29;8.30;99.90
23721;DHT22;42950;52.134;5.578;2023-12-20T09:58:55;8.30;99.90
23721;DHT22;42950;52.134;5.578;2023-12-20T10:01:23;8.40;99.90
23721;DHT22;42950;52.134;5.578;2023-12-20T10:03:51;8.40;99.90
23721;DHT22;42950;52.134;5.578;2023-12-20T10:06:17;8.40;99.90
23721;DHT22;42950;52.134;5.578;2023-12-20T10:08:43;8.40;99.90
23721;DHT22;42950;52.134;5.578;2023-12-20T10:11:09;8.50;99.90
23721;DHT22;42950;52.134;5.578;2023-12-20T10:13:39;8.50;99.90
23721;DHT22;42950;52.134;5.578;2023-12-20T10:16:06;8.60;99.90
23721;DHT22;42950;52.134;5.578;2023-12-20T10:18:32;8.60;99.90
23721;DHT22;42950;52.134;5.578;2023-12-20T10:20:57;8.60;99.90
23721;DHT22;42950;52.134;5.578;2023-12-20T10:23:24;8.70;99.90
23721;DHT22;42950;52.134;5.578;2023-12-20T10:25:56;8.70;99.90
23721;DHT22;42950;52.134;5.578;2023-12-20T10:28:22;8.70;99.90
23721;DHT22;42950;52.134;5.578;2023-12-20T10:30:52;8.70;99.90
23721;DHT22;42950;52.134;5.578;2023-12-20T10:33:26;8.80;99.90
23721;DHT22;42950;52.134;5.578;2023-12-20T10:35:52;8.80;99.90
23721;DHT22;42950;52.134;5.578;2023-12-20T10:38:18;8.80;99.90
23721;DHT22;42950;52.134;5.578;2023-12-20T10:40:47;8.80;99.90
23721;DHT22;42950;52.134;5.578;2023-12-20T10:43:15;8.90;99.90
23721;DHT22;42950;52.134;5.578;2023-12-20T10:45:42;8.90;99.90
23721;DHT22;42950;52.134;5.578;2023-12-20T10:48:10;8.90;99.90
23721;DHT22;42950;52.134;5.578;2023-12-20T10:50:38;8.90;99.90
23721;DHT22;42950;52.134;5.578;2023-12-20T10:53:06;8.90;99.90
23721;DHT22;42950;52.134;5.578;2023-12-20T10:55:32;9.00;99.90
23721;DHT22;42950;52.134;5.578;2023-12-20T10:58:05;9.10;99.90
23721;DHT22;42950;52.134;5.578;2023-12-20T11:00:32;9.10;99.90
23721;DHT22;42950;52.134;5.578;2023-12-20T11:03:00;9.20;99.90
23721;DHT22;42950;52.134;5.578;2023-12-20T11:05:47;9.20;99.90
23721;DHT22;42950;52.134;5.578;2023-12-20T11:08:24;9.30;99.90
23721;DHT22;42950;52.134;5.578;2023-12-20T11:10:59;9.40;99.90
23721;DHT22;42950;52.134;5.578;2023-12-20T11:13:37;9.50;99.90
23721;DHT22;42950;52.134;5.578;2023-12-20T11:16:05;9.40;99.90
23721;DHT22;42950;52.134;5.578;2023-12-20T11:18:31;9.40;99.90
23721;DHT22;42950;52.134;5.578;2023-12-20T11:21:01;9.40;99.90
23721;DHT22;42950;52.134;5.578;2023-12-20T11:23:30;9.40;99.90
23721;DHT22;42950;52.134;5.578;2023-12-20T11:25:56;9.40;99.90
23721;DHT22;42950;52.134;5.578;2023-12-20T11:28:26;9.50;99.90
23721;DHT22;42950;52.134;5.578;2023-12-20T11:30:56;9.50;99.90
23721;DHT22;42950;52.134;5.578;2023-12-20T11:33:30;9.50;99.90
23721;DHT22;42950;52.134;5.578;2023-12-20T11:35:57;9.50;99.90
23721;DHT22;42950;52.134;5.578;2023-12-20T11:38:25;9.50;99.90
23721;DHT22;42950;52.134;5.578;2023-12-20T11:40:50;9.40;99.90
23721;DHT22;42950;52.134;5.578;2023-12-20T11:43:35;9.40;99.90
23721;DHT22;42950;52.134;5.578;2023-12-20T11:46:05;9.50;99.90
23721;DHT22;42950;52.134;5.578;2023-12-20T11:48:38;9.50;99.90
23721;DHT22;42950;52.134;5.578;2023-12-20T11:51:13;9.50;99.90
23721;DHT22;42950;52.134;5.578;2023-12-20T11:53:40;9.60;99.90
23721;DHT22;42950;52.134;5.578;2023-12-20T11:56:07;9.50;99.90
23721;DHT22;42950;52.134;5.578;2023-12-20T11:58:36;9.50;99.90
23721;DHT22;42950;52.134;5.578;2023-12-20T12:01:02;9.50;99.90
23721;DHT22;42950;52.134;5.578;2023-12-20T12:03:28;9.50;99.90
23721;DHT22;42950;52.134;5.578;2023-12-20T12:05:53;9.50;99.90
23721;DHT22;42950;52.134;5.578;2023-12-20T12:08:19;9.60;99.90
23721;DHT22;42950;52.134;5.578;2023-12-20T12:10:45;9.50;99.90
23721;DHT22;42950;52.134;5.578;2023-12-20T12:13:11;9.60;99.90
23721;DHT22;42950;52.134;5.578;2023-12-20T12:15:37;9.50;99.90
23721;DHT22;42950;52.134;5.578;2023-12-20T12:18:03;9.60;99.90
23721;DHT22;42950;52.134;5.578;2023-12-20T12:20:28;9.60;99.90
23721;DHT22;42950;52.134;5.578;2023-12-20T12:23:02;9.60;99.90
23721;DHT22;42950;52.134;5.578;2023-12-20T12:25:32;9.50;99.90
23721;DHT22;42950;52.134;5.578;2023-12-20T12:27:58;9.50;99.90
23721;DHT22;42950;52.134;5.578;2023-12-20T12:30:24;9.50;99.90
23721;DHT22;42950;52.134;5.578;2023-12-20T12:32:55;9.50;99.90
23721;DHT22;42950;52.134;5.578;2023-12-20T12:35:21;9.50;99.90
23721;DHT22;42950;52.134;5.578;2023-12-20T12:37:47;9.50;99.90
23721;DHT22;42950;52.134;5.578;2023-12-20T12:40:14;9.60;99.90
23721;DHT22;42950;52.134;5.578;2023-12-20T12:42:42;9.60;99.90
23721;DHT22;42950;52.134;5.578;2023-12-20T12:45:09;9.60;99.90
23721;DHT22;42950;52.134;5.578;2023-12-20T12:47:35;9.50;99.90
23721;DHT22;42950;52.134;5.578;2023-12-20T12:50:01;9.60;99.90
23721;DHT22;42950;52.134;5.578;2023-12-20T12:52:27;9.60;99.90
23721;DHT22;42950;52.134;5.578;2023-12-20T12:54:53;9.60;99.90
23721;DHT22;42950;52.134;5.578;2023-12-20T12:57:19;9.60;99.90
23721;DHT22;42950;52.134;5.578;2023-12-20T12:59:45;9.60;99.90
23721;DHT22;42950;52.134;5.578;2023-12-20T13:02:14;9.60;99.90
23721;DHT22;42950;52.134;5.578;2023-12-20T13:04:41;9.60;99.90
23721;DHT22;42950;52.134;5.578;2023-12-20T13:07:09;9.50;99.90
23721;DHT22;42950;52.134;5.578;2023-12-20T13:09:38;9.50;99.90
23721;DHT22;42950;52.134;5.578;2023-12-20T13:12:07;9.50;99.90
23721;DHT22;42950;52.134;5.578;2023-12-20T13:14:34;9.60;99.90
23721;DHT22;42950;52.134;5.578;2023-12-20T13:17:01;9.60;99.90
23721;DHT22;42950;52.134;5.578;2023-12-20T13:19:27;9.60;99.90
23721;DHT22;42950;52.134;5.578;2023-12-20T13:21:53;9.60;99.90
23721;DHT22;42950;52.134;5.578;2023-12-20T13:24:18;9.50;99.90
23721;DHT22;42950;52.134;5.578;2023-12-20T13:26:44;9.60;99.90
23721;DHT22;42950;52.134;5.578;2023-12-20T13:29:10;9.50;99.90
23721;DHT22;42950;52.134;5.578;2023-12-20T13:31:35;9.50;99.90
23721;DHT22;42950;52.134;5.578;2023-12-20T13:34:02;9.50;99.90
23721;DHT22;42950;52.134;5.578;2023-12-20T13:36:27;9.50;99.90
23721;DHT22;42950;52.134;5.578;2023-12-20T13:38:53;9.50;99.90
23721;DHT22;42950;52.134;5.578;2023-12-20T13:41:19;9.50;99.90
23721;DHT22;42950;52.134;5.578;2023-12-20T13:43:45;9.50;99.90
23721;DHT22;42950;52.134;5.578;2023-12-20T13:46:11;9.50;99.90
23721;DHT22;42950;52.134;5.578;2023-12-20T13:48:36;9.50;99.90
23721;DHT22;42950;52.134;5.578;2023-12-20T13:51:02;9.40;99.90
23721;DHT22;42950;52.134;5.578;2023-12-20T13:53:28;9.50;99.90
23721;DHT22;42950;52.134;5.578;2023-12-20T13:55:54;9.40;99.90
23721;DHT22;42950;52.134;5.578;2023-12-20T13:58:19;9.50;99.90
23721;DHT22;42950;52.134;5.578;2023-12-20T14:00:45;9.50;99.90
23721;DHT22;42950;52.134;5.578;2023-12-20T14:03:11;9.50;99.90
23721;DHT22;42950;52.134;5.578;2023-12-20T14:05:36;9.50;99.90
23721;DHT22;42950;52.134;5.578;2023-12-20T14:08:03;9.50;99.90
23721;DHT22;42950;52.134;5.578;2023-12-20T14:10:28;9.50;99.90
23721;DHT22;42950;52.134;5.578;2023-12-20T14:12:54;9.50;99.90
23721;DHT22;42950;52.134;5.578;2023-12-20T14:15:20;9.50;99.90
23721;DHT22;42950;52.134;5.578;2023-12-20T14:17:46;9.40;99.90
23721;DHT22;42950;52.134;5.578;2023-12-20T14:20:12;9.40;99.90
23721;DHT22;42950;52.134;5.578;2023-12-20T14:22:38;9.40;99.90
23721;DHT22;42950;52.134;5.578;2023-12-20T14:25:04;9.40;99.90
23721;DHT22;42950;52.134;5.578;2023-12-20T14:27:31;9.40;99.90
23721;DHT22;42950;52.134;5.578;2023-12-20T14:29:57;9.40;99.90
23721;DHT22;42950;52.134;5.578;2023-12-20T14:32:23;9.40;99.90
23721;DHT22;42950;52.134;5.578;2023-12-20T14:34:49;9.40;99.90
23721;DHT22;42950;52.134;5.578;2023-12-20T14:37:14;9.40;99.90
23721;DHT22;42950;52.134;5.578;2023-12-20T14:39:41;9.40;99.90
23721;DHT22;42950;52.134;5.578;2023-12-20T14:42:10;9.40;99.90
23721;DHT22;42950;52.134;5.578;2023-12-20T14:44:41;9.40;99.90
23721;DHT22;42950;52.134;5.578;2023-12-20T14:47:07;9.40;99.90
23721;DHT22;42950;52.134;5.578;2023-12-20T14:49:32;9.40;99.90
23721;DHT22;42950;52.134;5.578;2023-12-20T14:51:58;9.40;99.90
23721;DHT22;42950;52.134;5.578;2023-12-20T14:54:24;9.50;99.90
23721;DHT22;42950;52.134;5.578;2023-12-20T14:56:50;9.40;99.90
23721;DHT22;42950;52.134;5.578;2023-12-20T14:59:16;9.40;99.90
23721;DHT22;42950;52.134;5.578;2023-12-20T15:01:41;9.40;99.90
23721;DHT22;42950;52.134;5.578;2023-12-20T15:04:08;9.50;99.90
23721;DHT22;42950;52.134;5.578;2023-12-20T15:06:34;9.40;99.90
23721;DHT22;42950;52.134;5.578;2023-12-20T15:08:59;9.40;99.90
23721;DHT22;42950;52.134;5.578;2023-12-20T15:11:26;9.50;99.90
23721;DHT22;42950;52.134;5.578;2023-12-20T15:13:52;9.50;99.90
23721;DHT22;42950;52.134;5.578;2023-12-20T15:16:24;9.50;99.90
23721;DHT22;42950;52.134;5.578;2023-12-20T15:18:51;9.40;99.90
23721;DHT22;42950;52.134;5.578;2023-12-20T15:21:16;9.40;99.90
23721;DHT22;42950;52.134;5.578;2023-12-20T15:23:42;9.40;99.90
23721;DHT22;42950;52.134;5.578;2023-12-20T15:26:28;9.40;99.90
23721;DHT22;42950;52.134;5.578;2023-12-20T15:28:54;9.40;99.90
23721;DHT22;42950;52.134;5.578;2023-12-20T15:31:19;9.30;99.90
23721;DHT22;42950;52.134;5.578;2023-12-20T15:33:51;9.30;99.90
23721;DHT22;42950;52.134;5.578;2023-12-20T15:36:17;9.30;99.90
23721;DHT22;42950;52.134;5.578;2023-12-20T15:38:42;9.30;99.90